createdAt,value
2023-01-07T00:01:26.415Z,2.75
2023-01-07T00:03:53.432Z,3.75
2023-01-07T00:06:27.632Z,3.63
2023-01-07T00:08:55.191Z,3.17
2023-01-07T00:11:31.010Z,5.00
2023-01-07T00:13:58.728Z,3.35
2023-01-07T00:16:27.578Z,3.97
2023-01-07T00:18:55.475Z,3.28
2023-01-07T00:21:23.110Z,3.50
2023-01-07T00:23:50.461Z,4.85
2023-01-07T00:26:18.798Z,3.45
2023-01-07T00:28:47.330Z,3.67
2023-01-07T00:31:39.268Z,3.72
2023-01-07T00:34:09.788Z,4.00
2023-01-07T00:36:47.229Z,7.13
2023-01-07T00:39:24.528Z,3.88
2023-01-07T00:42:09.942Z,4.47
2023-01-07T00:44:37.984Z,4.05
2023-01-07T00:47:05.009Z,6.45
2023-01-07T00:49:31.781Z,3.60
2023-01-07T00:51:58.509Z,3.63
2023-01-07T00:54:25.301Z,4.50
2023-01-07T00:56:52.005Z,3.40
2023-01-07T00:59:18.786Z,4.25
2023-01-07T01:01:45.780Z,4.15
2023-01-07T01:04:12.711Z,3.92
2023-01-07T01:06:39.462Z,4.18
2023-01-07T01:09:06.160Z,3.97
2023-01-07T01:11:32.875Z,5.22
2023-01-07T01:13:59.592Z,4.10
2023-01-07T01:16:26.359Z,4.22
2023-01-07T01:18:53.172Z,4.88
2023-01-07T01:21:19.981Z,4.93
2023-01-07T01:23:46.791Z,5.20
2023-01-07T01:26:15.633Z,5.05
2023-01-07T01:28:43.307Z,3.92
2023-01-07T01:31:10.098Z,3.92
2023-01-07T01:33:36.850Z,3.85
2023-01-07T01:36:05.259Z,4.25
2023-01-07T01:38:32.032Z,5.68
2023-01-07T01:40:58.773Z,5.20
2023-01-07T01:43:29.124Z,8.07
2023-01-07T01:45:56.070Z,7.57
2023-01-07T01:48:22.785Z,5.20
2023-01-07T01:50:49.521Z,6.35
2023-01-07T01:53:20.420Z,3.90
2023-01-07T01:55:55.631Z,3.92
2023-01-07T01:58:28.299Z,5.32
2023-01-07T02:00:55.110Z,5.78
2023-01-07T02:03:22.057Z,5.32
2023-01-07T02:05:48.764Z,5.57
2023-01-07T02:08:22.109Z,5.13
2023-01-07T02:10:52.242Z,4.18
2023-01-07T02:13:32.746Z,4.45
2023-01-07T02:16:28.790Z,4.68
2023-01-07T02:19:24.285Z,4.75
2023-01-07T02:22:06.190Z,6.07
2023-01-07T02:25:00.998Z,4.30
2023-01-07T02:27:47.691Z,4.05
2023-01-07T02:30:32.490Z,5.40
2023-01-07T02:33:21.182Z,4.07
2023-01-07T02:35:52.593Z,4.45
2023-01-07T02:38:22.367Z,4.35
2023-01-07T02:41:12.013Z,4.20
2023-01-07T02:43:50.688Z,5.43
2023-01-07T02:46:45.996Z,3.72
2023-01-07T02:49:15.225Z,4.45
2023-01-07T02:51:42.381Z,4.45
2023-01-07T02:54:22.095Z,4.07
2023-01-07T02:57:10.512Z,5.13
2023-01-07T03:00:14.687Z,6.18
2023-01-07T03:03:07.399Z,3.92
2023-01-07T03:05:34.203Z,4.10
2023-01-07T03:08:04.497Z,5.35
2023-01-07T03:10:35.381Z,3.65
2023-01-07T03:13:08.111Z,7.57
2023-01-07T03:16:01.100Z,5.18
2023-01-07T03:18:32.854Z,4.85
2023-01-07T03:21:01.846Z,4.68
2023-01-07T03:23:29.094Z,7.15
2023-01-07T03:25:56.089Z,4.93
2023-01-07T03:28:25.683Z,6.38
2023-01-07T03:30:53.320Z,5.22
2023-01-07T03:33:26.680Z,5.40
2023-01-07T03:35:53.398Z,4.13
2023-01-07T03:38:20.171Z,4.85
2023-01-07T03:40:46.898Z,4.65
2023-01-07T03:43:14.562Z,5.10
2023-01-07T03:45:41.757Z,4.07
2023-01-07T03:48:08.497Z,4.68
2023-01-07T03:50:35.329Z,4.93
2023-01-07T03:53:02.163Z,4.18
2023-01-07T03:55:28.887Z,5.47
2023-01-07T03:57:56.369Z,4.30
2023-01-07T04:00:23.239Z,6.15
2023-01-07T04:02:49.977Z,5.03
2023-01-07T04:05:16.780Z,4.60
2023-01-07T04:07:43.685Z,4.60
2023-01-07T04:10:10.647Z,4.63
2023-01-07T04:12:37.386Z,5.63
2023-01-07T04:15:04.713Z,3.95
2023-01-07T04:17:31.469Z,4.68
2023-01-07T04:19:58.193Z,4.75
2023-01-07T04:22:24.927Z,5.07
2023-01-07T04:24:51.951Z,3.83
2023-01-07T04:27:18.658Z,4.15
2023-01-07T04:29:45.843Z,5.10
2023-01-07T04:32:12.570Z,6.20
2023-01-07T04:34:39.284Z,4.68
2023-01-07T04:37:06.023Z,4.00
2023-01-07T04:39:32.776Z,3.90
2023-01-07T04:41:59.471Z,4.60
2023-01-07T04:44:26.201Z,4.65
2023-01-07T04:46:52.907Z,5.18
2023-01-07T04:49:20.239Z,4.60
2023-01-07T04:51:46.979Z,5.88
2023-01-07T04:54:13.834Z,5.93
2023-01-07T04:56:40.625Z,7.32
2023-01-07T04:59:07.325Z,4.85
2023-01-07T05:01:34.300Z,4.55
2023-01-07T05:04:01.363Z,5.50
2023-01-07T05:06:28.174Z,5.63
2023-01-07T05:08:54.975Z,3.85
2023-01-07T05:11:21.934Z,6.40
2023-01-07T05:13:49.755Z,3.83
2023-01-07T05:16:16.990Z,3.58
2023-01-07T05:18:43.947Z,4.57
2023-01-07T05:21:10.800Z,4.00
2023-01-07T05:23:37.540Z,3.58
2023-01-07T05:26:04.313Z,5.28
2023-01-07T05:28:31.016Z,3.85
2023-01-07T05:30:57.751Z,4.75
2023-01-07T05:33:24.580Z,4.72
2023-01-07T05:35:51.297Z,4.32
2023-01-07T05:38:18.015Z,3.65
2023-01-07T05:40:49.625Z,4.57
2023-01-07T05:43:17.011Z,3.50
2023-01-07T05:45:45.620Z,4.13
2023-01-07T05:48:12.958Z,3.85
2023-01-07T05:50:39.701Z,2.90
2023-01-07T05:53:06.482Z,3.00
2023-01-07T05:55:33.268Z,3.47
2023-01-07T05:58:00.001Z,2.97
2023-01-07T06:00:26.717Z,3.53
2023-01-07T06:02:53.495Z,4.60
2023-01-07T06:05:20.297Z,3.58
2023-01-07T06:07:47.098Z,3.00
2023-01-07T06:10:14.057Z,3.90
2023-01-07T06:12:40.822Z,3.65
2023-01-07T06:15:08.080Z,2.90
2023-01-07T06:17:34.868Z,3.03
2023-01-07T06:20:01.636Z,3.15
2023-01-07T06:22:28.373Z,4.13
2023-01-07T06:24:55.116Z,3.10
2023-01-07T06:27:21.793Z,3.00
2023-01-07T06:29:48.496Z,3.30
2023-01-07T06:32:15.221Z,3.05
2023-01-07T06:34:41.955Z,3.17
2023-01-07T06:37:08.718Z,2.83
2023-01-07T06:39:35.449Z,3.05
2023-01-07T06:42:02.193Z,4.05
2023-01-07T06:44:29.048Z,2.67
2023-01-07T06:46:55.849Z,2.15
2023-01-07T06:49:22.599Z,2.45
2023-01-07T06:51:49.342Z,2.85
2023-01-07T06:54:16.103Z,2.78
2023-01-07T06:56:42.852Z,2.20
2023-01-07T06:59:10.748Z,3.45
2023-01-07T07:01:37.682Z,3.47
2023-01-07T07:04:04.594Z,3.72
2023-01-07T07:06:31.391Z,3.15
2023-01-07T07:08:58.125Z,6.30
2023-01-07T07:11:24.911Z,2.83
2023-01-07T07:13:51.695Z,3.33
2023-01-07T07:16:18.590Z,2.38
2023-01-07T07:18:45.381Z,3.80
2023-01-07T07:21:12.146Z,1.90
2023-01-07T07:23:38.918Z,3.22
2023-01-07T07:26:08.656Z,7.80
2023-01-07T07:28:35.563Z,10.50
2023-01-07T07:31:04.917Z,15.43
2023-01-07T07:33:31.745Z,10.27
2023-01-07T07:35:58.511Z,4.53
2023-01-07T07:38:27.303Z,3.05
2023-01-07T07:40:54.054Z,4.75
2023-01-07T07:43:21.017Z,3.50
2023-01-07T07:45:47.842Z,3.20
2023-01-07T07:48:15.659Z,3.30
2023-01-07T07:50:42.669Z,4.38
2023-01-07T07:53:10.606Z,8.25
2023-01-07T07:55:40.033Z,6.03
2023-01-07T07:58:07.280Z,5.38
2023-01-07T08:00:34.385Z,5.57
2023-01-07T08:03:01.599Z,3.95
2023-01-07T08:05:28.685Z,7.03
2023-01-07T08:07:57.005Z,4.43
2023-01-07T08:10:24.347Z,4.93
2023-01-07T08:12:51.147Z,4.90
2023-01-07T08:15:18.046Z,3.72
2023-01-07T08:17:44.804Z,5.03
2023-01-07T08:20:12.276Z,5.50
2023-01-07T08:22:39.093Z,5.43
2023-01-07T08:25:06.256Z,7.15
2023-01-07T08:27:33.037Z,7.40
2023-01-07T08:29:59.783Z,5.30
2023-01-07T08:32:26.569Z,5.22
2023-01-07T08:34:53.375Z,8.25
2023-01-07T08:37:20.099Z,4.82
2023-01-07T08:39:46.864Z,4.85
2023-01-07T08:42:13.613Z,4.78
2023-01-07T08:44:40.345Z,7.57
2023-01-07T08:47:07.056Z,5.13
2023-01-07T08:49:33.830Z,5.05
2023-01-07T08:52:00.565Z,4.75
2023-01-07T08:54:27.484Z,6.65
2023-01-07T08:56:54.268Z,4.75
2023-01-07T08:59:21.064Z,5.32
2023-01-07T09:01:47.953Z,6.45
2023-01-07T09:04:14.830Z,5.35
2023-01-07T09:06:41.679Z,7.55
2023-01-07T09:09:08.477Z,6.38
2023-01-07T09:11:36.314Z,6.38
2023-01-07T09:14:03.058Z,6.35
2023-01-07T09:16:42.808Z,5.93
2023-01-07T09:19:10.921Z,8.95
2023-01-07T09:21:37.790Z,4.90
2023-01-07T09:24:04.786Z,6.20
2023-01-07T09:26:31.641Z,5.68
2023-01-07T09:29:00.548Z,6.85
2023-01-07T09:31:39.326Z,5.55
2023-01-07T09:34:06.126Z,4.40
2023-01-07T09:36:35.603Z,3.85
2023-01-07T09:39:04.410Z,4.95
2023-01-07T09:41:34.316Z,5.63
2023-01-07T09:44:13.896Z,4.32
2023-01-07T09:46:44.032Z,4.13
2023-01-07T09:49:17.488Z,5.65
2023-01-07T09:51:46.503Z,6.07
2023-01-07T09:54:45.070Z,7.63
2023-01-07T09:57:13.934Z,7.40
2023-01-07T09:59:40.674Z,6.78
2023-01-07T10:02:42.727Z,7.05
2023-01-07T10:05:44.125Z,3.65
2023-01-07T10:08:29.818Z,7.45
2023-01-07T10:12:00.418Z,5.63
2023-01-07T10:14:34.316Z,7.10
2023-01-07T10:17:21.988Z,4.75
2023-01-07T10:19:57.977Z,5.80
2023-01-07T10:22:31.770Z,4.53
2023-01-07T10:25:15.568Z,3.92
2023-01-07T10:27:44.503Z,3.55
2023-01-07T10:30:25.817Z,3.13
2023-01-07T10:32:56.858Z,4.22
2023-01-07T10:35:27.128Z,3.10
2023-01-07T10:37:54.259Z,4.68
2023-01-07T10:40:45.187Z,3.92
2023-01-07T10:43:53.019Z,3.97
2023-01-07T10:46:55.908Z,4.63
2023-01-07T10:49:38.801Z,4.25
2023-01-07T10:52:44.195Z,3.28
2023-01-07T10:55:24.832Z,9.10
2023-01-07T10:57:51.613Z,3.97
2023-01-07T11:00:18.373Z,5.47
2023-01-07T11:02:48.918Z,5.45
2023-01-07T11:05:17.601Z,4.55
2023-01-07T11:07:52.768Z,4.93
2023-01-07T11:10:21.286Z,14.30
2023-01-07T11:12:56.967Z,4.43
2023-01-07T11:15:28.503Z,3.55
2023-01-07T11:17:59.842Z,3.28
2023-01-07T11:20:52.032Z,3.35
2023-01-07T11:23:35.373Z,3.15
2023-01-07T11:28:32.942Z,4.10
2023-01-07T11:31:00.044Z,9.30
2023-01-07T11:34:03.106Z,10.20
2023-01-07T11:36:43.420Z,6.18
2023-01-07T11:39:19.948Z,12.15
2023-01-07T11:41:53.749Z,4.88
2023-01-07T11:44:20.495Z,12.90
2023-01-07T11:46:47.280Z,11.32
2023-01-07T11:49:28.088Z,6.13
2023-01-07T11:51:54.936Z,4.57
2023-01-07T11:54:23.735Z,8.73
2023-01-07T11:56:50.734Z,8.40
2023-01-07T11:59:20.550Z,5.60
2023-01-07T12:01:48.957Z,5.88
2023-01-07T12:04:32.732Z,7.85
2023-01-07T12:07:13.629Z,14.63
2023-01-07T12:09:41.237Z,7.50
2023-01-07T12:12:27.942Z,9.15
2023-01-07T12:14:54.685Z,14.90
2023-01-07T12:17:22.552Z,23.27
2023-01-07T12:20:28.156Z,9.05
2023-01-07T12:23:05.091Z,9.45
2023-01-07T12:25:38.883Z,9.80
2023-01-07T12:28:16.443Z,7.18
2023-01-07T12:31:07.648Z,8.98
2023-01-07T12:34:00.342Z,10.15
2023-01-07T12:36:39.963Z,8.48
2023-01-07T12:39:12.997Z,8.10
2023-01-07T12:41:41.712Z,12.65
2023-01-07T12:44:12.530Z,17.70
2023-01-07T12:46:51.947Z,18.00
2023-01-07T12:49:23.386Z,12.88
2023-01-07T12:52:11.503Z,12.85
2023-01-07T12:54:55.146Z,15.00
2023-01-07T12:57:26.281Z,10.98
2023-01-07T13:00:11.291Z,13.45
2023-01-07T13:02:55.608Z,13.50
2023-01-07T13:05:25.482Z,10.75
2023-01-07T13:08:04.201Z,21.20
2023-01-07T13:10:42.474Z,22.77
2023-01-07T13:13:17.615Z,16.38
2023-01-07T13:15:44.358Z,11.55
2023-01-07T13:18:11.136Z,16.77
2023-01-07T13:20:47.400Z,10.23
2023-01-07T13:23:35.446Z,19.10
2023-01-07T13:26:20.918Z,12.98
2023-01-07T13:28:56.286Z,10.45
2023-01-07T13:31:42.820Z,10.98
2023-01-07T13:34:24.295Z,12.82
2023-01-07T13:37:10.078Z,10.23
2023-01-07T13:40:14.473Z,8.38
2023-01-07T13:42:54.217Z,10.38
2023-01-07T13:45:23.067Z,7.43
2023-01-07T13:47:52.040Z,10.15
2023-01-07T13:50:23.367Z,6.38
2023-01-07T13:53:16.385Z,17.65
2023-01-07T13:55:44.113Z,18.77
2023-01-07T13:58:30.822Z,19.88
2023-01-07T14:01:08.826Z,12.68
2023-01-07T14:03:56.404Z,13.65
2023-01-07T14:06:23.921Z,36.95
2023-01-07T14:09:13.691Z,14.55
2023-01-07T14:12:19.686Z,19.90
2023-01-07T14:14:52.365Z,23.70
2023-01-07T14:17:53.358Z,19.92
2023-01-07T14:20:32.590Z,9.15
2023-01-07T14:23:15.509Z,7.78
2023-01-07T14:26:01.180Z,7.68
2023-01-07T14:28:31.024Z,9.55
2023-01-07T14:30:58.540Z,9.57
2023-01-07T14:33:58.293Z,7.82
2023-01-07T14:36:26.416Z,9.50
2023-01-07T14:38:59.514Z,9.57
2023-01-07T14:44:22.933Z,9.30
2023-01-07T14:46:49.847Z,7.28
2023-01-07T14:49:26.706Z,7.50
2023-01-07T14:52:09.664Z,11.27
2023-01-07T14:54:46.711Z,8.27
2023-01-07T14:57:31.506Z,8.65
2023-01-07T15:00:16.818Z,7.80
2023-01-07T15:02:43.604Z,12.65
2023-01-07T15:05:42.692Z,8.52
2023-01-07T15:08:28.508Z,9.85
2023-01-07T15:11:14.015Z,8.38
2023-01-07T15:14:02.351Z,11.30
2023-01-07T15:16:29.982Z,7.43
2023-01-07T15:18:56.758Z,8.55
2023-01-07T15:21:30.803Z,7.95
2023-01-07T15:24:24.701Z,8.73
2023-01-07T15:27:09.633Z,8.40
2023-01-07T15:29:45.212Z,10.55
2023-01-07T15:32:39.806Z,12.65
2023-01-07T15:35:14.942Z,9.07
2023-01-07T15:37:46.730Z,10.00
2023-01-07T15:40:16.973Z,20.52
2023-01-07T15:42:45.013Z,21.08
2023-01-07T15:45:17.804Z,13.55
2023-01-07T15:47:44.779Z,10.80
2023-01-07T15:50:35.091Z,11.18
2023-01-07T15:53:21.801Z,10.63
2023-01-07T15:56:05.793Z,11.10
2023-01-07T15:58:45.992Z,11.02
2023-01-07T16:01:22.288Z,12.63
2023-01-07T16:03:50.732Z,13.05
2023-01-07T16:06:33.849Z,12.25
2023-01-07T16:09:18.513Z,13.70
2023-01-07T16:11:45.555Z,16.80
2023-01-07T16:14:25.653Z,30.98
2023-01-07T16:17:25.804Z,24.48
2023-01-07T16:20:11.002Z,15.18
2023-01-07T16:22:38.069Z,16.10
2023-01-07T16:25:06.473Z,19.48
2023-01-07T16:27:33.207Z,16.17
2023-01-07T16:30:00.153Z,14.75
2023-01-07T16:32:27.078Z,20.45
2023-01-07T16:34:59.519Z,14.75
2023-01-07T16:37:26.247Z,16.50
2023-01-07T16:39:53.079Z,14.77
2023-01-07T16:42:20.976Z,20.27
2023-01-07T16:44:49.531Z,17.27
2023-01-07T16:47:23.269Z,16.88
2023-01-07T16:49:50.643Z,25.55
2023-01-07T16:52:18.534Z,16.85
2023-01-07T16:54:56.745Z,18.30
2023-01-07T16:57:33.838Z,22.10
2023-01-07T17:00:02.087Z,19.90
2023-01-07T17:02:39.193Z,22.63
2023-01-07T17:05:25.144Z,17.88
2023-01-07T17:07:55.243Z,17.83
2023-01-07T17:10:31.974Z,18.95
2023-01-07T17:13:00.701Z,18.42
2023-01-07T17:15:33.337Z,18.88
2023-01-07T17:18:12.466Z,20.33
2023-01-07T17:20:42.832Z,20.23
2023-01-07T17:23:28.080Z,18.77
2023-01-07T17:26:21.792Z,19.63
2023-01-07T17:28:52.950Z,19.17
2023-01-07T17:31:20.196Z,19.27
2023-01-07T17:33:47.131Z,18.60
2023-01-07T17:36:18.516Z,20.92
2023-01-07T17:38:45.325Z,18.73
2023-01-07T17:41:33.161Z,19.75
2023-01-07T17:44:00.563Z,22.17
2023-01-07T17:46:27.796Z,22.23
2023-01-07T17:48:54.730Z,21.73
2023-01-07T17:51:21.552Z,22.02
2023-01-07T17:53:49.762Z,20.88
2023-01-07T17:56:17.057Z,21.58
2023-01-07T17:58:46.640Z,22.33
2023-01-07T18:01:22.011Z,20.27
2023-01-07T18:03:49.237Z,24.10
2023-01-07T18:06:21.753Z,20.40
2023-01-07T18:08:50.666Z,19.65
2023-01-07T18:11:40.541Z,22.75
2023-01-07T18:14:07.787Z,22.85
2023-01-07T18:16:34.713Z,20.35
2023-01-07T18:19:01.699Z,24.00
2023-01-07T18:21:28.509Z,22.08
2023-01-07T18:23:55.565Z,21.25
2023-01-07T18:26:22.545Z,25.38
2023-01-07T18:28:49.401Z,22.58
2023-01-07T18:31:16.245Z,23.60
2023-01-07T18:33:43.258Z,22.00
2023-01-07T18:36:10.699Z,23.10
2023-01-07T18:38:37.751Z,22.08
2023-01-07T18:41:04.754Z,21.60
2023-01-07T18:43:31.524Z,21.77
2023-01-07T18:45:58.325Z,24.38
2023-01-07T18:48:25.856Z,21.20
2023-01-07T18:50:52.625Z,26.05
2023-01-07T18:53:19.479Z,25.48
2023-01-07T18:55:46.280Z,25.42
2023-01-07T18:58:14.021Z,26.23
2023-01-07T19:00:41.390Z,29.23
2023-01-07T19:03:09.043Z,24.70
2023-01-07T19:05:38.681Z,31.52
2023-01-07T19:08:09.590Z,28.45
2023-01-07T19:10:38.639Z,28.42
2023-01-07T19:13:06.222Z,30.30
2023-01-07T19:15:34.114Z,26.65
2023-01-07T19:18:02.275Z,32.50
2023-01-07T19:20:29.147Z,32.22
2023-01-07T19:23:00.449Z,31.30
2023-01-07T19:25:30.711Z,34.42
2023-01-07T19:27:59.652Z,30.77
2023-01-07T19:30:26.507Z,41.00
2023-01-07T19:32:54.617Z,32.58
2023-01-07T19:35:21.555Z,34.35
2023-01-07T19:37:50.194Z,35.60
2023-01-07T19:40:17.202Z,37.70
2023-01-07T19:42:44.219Z,32.60
2023-01-07T19:45:11.162Z,34.38
2023-01-07T19:47:39.372Z,37.88
2023-01-07T19:50:06.624Z,34.38
2023-01-07T19:52:33.358Z,38.50
2023-01-07T19:55:00.263Z,36.58
2023-01-07T19:57:27.318Z,39.00
2023-01-07T19:59:54.134Z,38.72
2023-01-07T20:02:21.315Z,42.05
2023-01-07T20:04:49.943Z,36.85
2023-01-07T20:07:16.674Z,37.30
2023-01-07T20:09:43.436Z,40.33
2023-01-07T20:12:10.319Z,46.65
2023-01-07T20:14:37.146Z,35.50
2023-01-07T20:17:04.216Z,39.30
2023-01-07T20:19:31.013Z,47.85
2023-01-07T20:21:58.392Z,39.00
2023-01-07T20:24:25.306Z,41.05
2023-01-07T20:26:54.501Z,39.13
2023-01-07T20:29:21.486Z,36.20
2023-01-07T20:31:48.543Z,34.10
2023-01-07T20:34:15.495Z,37.00
2023-01-07T20:36:42.322Z,35.53
2023-01-07T20:39:09.283Z,33.72
2023-01-07T20:41:37.869Z,32.30
2023-01-07T20:44:05.643Z,38.28
2023-01-07T20:46:34.775Z,36.03
2023-01-07T20:49:01.765Z,37.53
2023-01-07T20:51:28.571Z,36.95
2023-01-07T20:53:55.712Z,36.58
2023-01-07T20:56:22.964Z,42.60
2023-01-07T20:58:49.960Z,36.85
2023-01-07T21:01:20.216Z,37.22
2023-01-07T21:03:47.295Z,36.25
2023-01-07T21:06:14.631Z,38.47
2023-01-07T21:08:41.578Z,33.97
2023-01-07T21:11:14.776Z,37.33
2023-01-07T21:13:41.783Z,40.88
2023-01-07T21:16:08.820Z,37.38
2023-01-07T21:18:35.907Z,46.50
2023-01-07T21:21:08.977Z,41.85
2023-01-07T21:23:35.863Z,40.47
2023-01-07T21:26:02.759Z,38.83
2023-01-07T21:28:29.635Z,36.03
2023-01-07T21:30:56.524Z,36.15
2023-01-07T21:33:23.442Z,37.17
2023-01-07T21:35:50.288Z,41.08
2023-01-07T21:38:17.064Z,42.17
2023-01-07T21:40:44.309Z,40.33
2023-01-07T21:43:11.282Z,45.65
2023-01-07T21:45:39.704Z,52.90
2023-01-07T21:48:06.917Z,47.92
2023-01-07T21:50:33.711Z,44.85
2023-01-07T21:53:00.436Z,50.80
2023-01-07T21:55:27.192Z,54.25
2023-01-07T21:57:54.001Z,56.25
2023-01-07T22:00:20.876Z,52.53
2023-01-07T22:02:47.793Z,54.95
2023-01-07T22:05:15.303Z,53.85
2023-01-07T22:07:42.107Z,50.83
2023-01-07T22:10:09.649Z,48.75
2023-01-07T22:12:36.423Z,57.97
2023-01-07T22:15:03.361Z,47.20
2023-01-07T22:17:30.293Z,51.05
2023-01-07T22:19:57.070Z,48.35
2023-01-07T22:22:23.878Z,57.42
2023-01-07T22:24:50.594Z,55.10
2023-01-07T22:27:17.312Z,54.85
2023-01-07T22:29:44.617Z,56.88
2023-01-07T22:32:11.369Z,58.65
2023-01-07T22:34:38.131Z,74.72
2023-01-07T22:37:14.384Z,71.85
2023-01-07T22:39:46.440Z,56.75
2023-01-07T22:42:22.994Z,73.63
2023-01-07T22:44:52.194Z,98.40
2023-01-07T22:47:21.151Z,110.80
2023-01-07T22:49:47.864Z,101.80
2023-01-07T22:52:14.592Z,82.50
2023-01-07T22:54:41.343Z,118.07
2023-01-07T22:57:08.719Z,76.03
2023-01-07T22:59:35.782Z,109.07
2023-01-07T23:02:02.606Z,94.00
2023-01-07T23:04:29.596Z,84.38
2023-01-07T23:06:56.342Z,132.48
2023-01-07T23:09:23.062Z,90.25
2023-01-07T23:11:50.929Z,143.23
2023-01-07T23:14:27.426Z,132.45
2023-01-07T23:16:54.232Z,116.60
2023-01-07T23:19:21.145Z,130.95
2023-01-07T23:21:49.518Z,144.68
2023-01-07T23:24:16.220Z,180.43
2023-01-07T23:26:43.068Z,105.93
2023-01-07T23:29:09.937Z,152.13
2023-01-07T23:31:36.972Z,120.60
2023-01-07T23:34:04.001Z,106.53
2023-01-07T23:36:30.756Z,124.43
2023-01-07T23:38:57.486Z,205.18
2023-01-07T23:41:24.271Z,147.88
2023-01-07T23:43:51.102Z,150.75
2023-01-07T23:46:17.896Z,98.00
2023-01-07T23:48:44.657Z,108.60
2023-01-07T23:51:16.480Z,93.82
2023-01-07T23:53:43.380Z,93.03
2023-01-07T23:56:10.209Z,132.75
2023-01-07T23:58:37.309Z,104.65
